Buechel, Kentucky
Current Conditions -  °F | °C
As of 2:53 PM on Wednesday 17 Dec 2014 (Local Time) from KLOU Reporting Station
Overcast Overcast  
Wind Chill: -3°   Ceiling: 2300
Heat Index:   Visibility: 10mi
Dew Point: -4°   Wind: 8mph
Humidity: 67%   Direction: 270°W
Pressure: 30.24"   Gusts: NA
Location:  38.1869°N, 85.6523°W
Report Text: KLOU 171953Z 27007KT 10SM OVC023 01/M04 A3024 RMK AO2 SLP245 T00111044
Loading
Personal Weather Stations






























Interactive Weather Map New forecast layout! Learn more

10-Day Weather Forecast

Advertisements
Track Severe Weather on mobile